createdAt,value
2023-04-25T04:49:53.928Z,3.80
2023-04-25T04:54:56.783Z,3.93
2023-04-25T04:59:59.692Z,3.80
2023-04-25T05:05:02.651Z,3.03
2023-04-25T05:10:05.955Z,3.90
2023-04-25T05:15:09.074Z,3.80
2023-04-25T05:20:12.004Z,3.57
2023-04-25T05:25:14.879Z,3.63
2023-04-25T05:30:17.676Z,3.37
2023-04-25T05:35:20.502Z,5.27
2023-04-25T05:40:23.307Z,5.03
2023-04-25T05:45:26.151Z,3.23
2023-04-25T05:50:28.962Z,3.10
2023-04-25T05:55:31.731Z,3.17
2023-04-25T06:00:34.916Z,2.23
2023-04-25T06:05:38.228Z,2.43
2023-04-25T06:10:41.196Z,2.30
2023-04-25T06:15:44.184Z,2.10
2023-04-25T06:20:47.017Z,2.73
2023-04-25T06:25:49.836Z,2.40
2023-04-25T06:30:52.845Z,2.17
2023-04-25T06:35:55.654Z,1.93
2023-04-25T06:40:58.429Z,2.70
2023-04-25T06:46:01.920Z,2.80
2023-04-25T06:51:04.911Z,3.10
2023-04-25T06:56:07.825Z,2.77
2023-04-25T07:01:10.922Z,2.60
2023-04-25T07:06:13.718Z,3.00
2023-04-25T07:11:16.616Z,2.67
2023-04-25T07:16:19.627Z,2.63
2023-04-25T07:21:22.423Z,3.30
2023-04-25T07:26:25.724Z,3.00
2023-04-25T07:31:28.686Z,2.97
2023-04-25T07:36:31.975Z,2.60
2023-04-25T07:41:35.885Z,3.40
2023-04-25T07:46:38.639Z,4.20
2023-04-25T07:51:42.047Z,3.30
2023-04-25T07:56:51.995Z,3.80
2023-04-25T08:01:58.250Z,3.43
2023-04-25T08:07:01.073Z,3.27
2023-04-25T08:12:04.326Z,3.33
2023-04-25T08:17:07.082Z,3.87
2023-04-25T08:22:10.014Z,3.53
2023-04-25T08:27:13.317Z,3.00
2023-04-25T08:32:16.085Z,3.00
2023-04-25T08:37:20.695Z,3.20
2023-04-25T08:42:23.999Z,2.83
2023-04-25T08:47:28.355Z,3.67
2023-04-25T08:52:39.101Z,3.70
2023-04-25T08:57:45.575Z,2.97
2023-04-25T09:02:49.000Z,3.17
2023-04-25T09:07:52.073Z,3.20
2023-04-25T09:13:09.887Z,2.60
2023-04-25T09:18:12.880Z,2.10
2023-04-25T09:23:16.574Z,2.87
2023-04-25T09:28:30.068Z,2.47
2023-04-25T09:33:36.723Z,2.90
2023-04-25T09:38:45.125Z,2.83
2023-04-25T09:43:47.996Z,2.20
2023-04-25T09:48:52.132Z,2.60
2023-04-25T09:53:54.977Z,2.27
2023-04-25T09:58:57.857Z,2.57
2023-04-25T10:04:01.850Z,2.50
2023-04-25T10:09:05.703Z,2.50
2023-04-25T10:14:08.510Z,1.83
2023-04-25T10:19:12.201Z,1.87
2023-04-25T10:24:15.500Z,1.80
2023-04-25T10:29:26.279Z,1.60
2023-04-25T10:34:48.198Z,1.53
2023-04-25T10:39:51.084Z,1.30
2023-04-25T10:45:05.792Z,1.60
2023-04-25T10:50:10.378Z,1.87
2023-04-25T10:55:13.266Z,1.80
2023-04-25T11:00:20.808Z,2.03
2023-04-25T11:05:31.364Z,1.53
2023-04-25T11:10:36.659Z,1.70
2023-04-25T11:15:39.586Z,1.93
2023-04-25T11:20:45.624Z,1.57
2023-04-25T11:25:48.443Z,1.80
2023-04-25T11:30:51.587Z,1.40
2023-04-25T11:35:57.965Z,1.20
2023-04-25T11:41:01.900Z,2.30
2023-04-25T11:46:09.238Z,1.87
2023-04-25T11:51:12.066Z,1.90
2023-04-25T11:56:14.957Z,1.70
2023-04-25T12:01:35.532Z,1.63
2023-04-25T12:06:41.226Z,1.30
2023-04-25T12:11:45.437Z,1.77
2023-04-25T12:16:49.370Z,1.73
2023-04-25T12:27:03.603Z,2.07
2023-04-25T12:32:06.984Z,2.13
2023-04-25T12:37:09.745Z,1.97
2023-04-25T12:42:13.297Z,2.23
2023-04-25T12:47:16.356Z,2.47
2023-04-25T12:52:19.154Z,2.47
2023-04-25T12:57:22.197Z,2.07
2023-04-25T13:02:25.104Z,2.03
2023-04-25T13:07:28.039Z,2.50
2023-04-25T13:12:31.643Z,2.00
2023-04-25T13:17:35.692Z,1.80
2023-04-25T13:22:41.629Z,2.13
2023-04-25T13:27:45.835Z,2.40
2023-04-25T13:32:48.675Z,2.00
2023-04-25T13:37:51.640Z,1.57
2023-04-25T13:42:54.745Z,1.70
2023-04-25T13:47:57.572Z,2.03
2023-04-25T13:53:00.383Z,1.63
2023-04-25T13:58:08.452Z,1.73
2023-04-25T14:03:11.639Z,1.90
2023-04-25T14:08:14.453Z,1.80
2023-04-25T14:13:17.210Z,2.00
2023-04-25T14:18:20.345Z,2.40
2023-04-25T14:23:23.300Z,2.37
2023-04-25T14:28:26.159Z,1.60
2023-04-25T14:33:28.923Z,2.03
2023-04-25T14:38:31.677Z,2.03
2023-04-25T14:43:34.495Z,2.17
2023-04-25T14:48:37.430Z,1.90
2023-04-25T14:53:41.912Z,1.77
2023-04-25T14:58:44.699Z,2.00
2023-04-25T15:03:47.999Z,2.10
2023-04-25T15:08:51.257Z,2.00
2023-04-25T15:13:54.308Z,2.23
2023-04-25T15:18:57.275Z,1.83
2023-04-25T15:24:00.145Z,1.90
2023-04-25T15:29:05.575Z,1.90
2023-04-25T15:34:09.389Z,1.90
2023-04-25T15:39:12.191Z,2.00
2023-04-25T15:44:14.906Z,2.13
2023-04-25T15:49:19.357Z,1.93
2023-04-25T15:54:22.177Z,1.87
2023-04-25T15:59:24.958Z,2.23
2023-04-25T16:04:31.010Z,2.40
2023-04-25T16:09:34.808Z,2.00
2023-04-25T16:14:37.839Z,2.00
2023-04-25T16:19:40.724Z,1.67
2023-04-25T16:24:44.285Z,1.87
2023-04-25T16:29:49.432Z,1.60
2023-04-25T16:34:52.249Z,1.20
2023-04-25T16:39:55.242Z,1.40
2023-04-25T16:44:58.176Z,1.57
2023-04-25T16:50:01.741Z,1.20
2023-04-25T16:55:04.813Z,1.60
2023-04-25T17:00:10.607Z,1.20
2023-04-25T17:05:13.634Z,1.43
2023-04-25T17:10:16.432Z,1.50
2023-04-25T17:15:19.287Z,1.50
2023-04-25T17:20:22.358Z,1.40
2023-04-25T17:25:25.278Z,1.60
2023-04-25T17:30:28.120Z,1.27
2023-04-25T17:35:31.499Z,1.33
2023-04-25T17:40:34.350Z,1.10
2023-04-25T17:45:37.100Z,1.67
2023-04-25T17:50:40.034Z,1.67
2023-04-25T17:55:43.825Z,1.77
2023-04-25T18:00:46.750Z,1.70
2023-04-25T18:05:49.516Z,1.50
2023-04-25T18:10:52.548Z,1.67
2023-04-25T18:15:56.797Z,1.47
2023-04-25T18:21:01.155Z,1.80
2023-04-25T18:26:04.573Z,1.47
2023-04-25T18:31:09.378Z,1.57
2023-04-25T18:36:12.409Z,1.90
2023-04-25T18:46:23.764Z,1.97
2023-04-25T18:51:31.456Z,2.20
2023-04-25T18:56:34.255Z,1.90
2023-04-25T19:01:37.263Z,2.20
2023-04-25T19:06:40.026Z,2.07
2023-04-25T19:11:42.864Z,2.30
2023-04-25T19:16:46.008Z,2.47
2023-04-25T19:21:50.406Z,2.37
2023-04-25T19:26:53.153Z,2.17
2023-04-25T19:31:57.177Z,2.23
2023-04-25T19:36:59.933Z,2.80
2023-04-25T19:42:04.154Z,2.20
2023-04-25T19:47:07.987Z,2.50
2023-04-25T19:52:14.917Z,2.53
2023-04-25T19:57:17.690Z,2.90
2023-04-25T20:02:21.353Z,2.13
2023-04-25T20:07:24.551Z,2.30
2023-04-25T20:12:27.327Z,2.23
2023-04-25T20:17:30.271Z,2.80
2023-04-25T20:22:37.079Z,2.73
2023-04-25T20:27:39.940Z,2.57
2023-04-25T20:32:42.771Z,2.17
2023-04-25T20:37:46.461Z,1.67
2023-04-25T20:42:49.561Z,2.10
2023-04-25T20:47:52.402Z,3.83
2023-04-25T20:52:55.217Z,2.40
2023-04-25T20:57:58.684Z,2.93
2023-04-25T21:03:05.030Z,1.97
2023-04-25T21:08:08.083Z,2.37
2023-04-25T21:13:12.230Z,1.97
2023-04-25T21:18:15.129Z,2.40
2023-04-25T21:23:18.119Z,1.93
2023-04-25T21:28:21.470Z,1.90
2023-04-25T21:33:24.297Z,2.03
2023-04-25T21:38:27.084Z,1.80
2023-04-25T21:43:29.868Z,1.80
2023-04-25T21:48:32.666Z,2.53
2023-04-25T21:53:35.508Z,2.20
2023-04-25T21:58:38.275Z,2.10
2023-04-25T22:03:42.024Z,2.13
2023-04-25T22:08:44.957Z,2.10
2023-04-25T22:13:47.732Z,1.53
2023-04-25T22:18:52.176Z,2.03
2023-04-25T22:23:56.678Z,2.87
2023-04-25T22:28:59.424Z,1.93
2023-04-25T22:34:02.165Z,1.70
2023-04-25T22:39:05.016Z,2.00
2023-04-25T22:44:07.962Z,1.83
2023-04-25T22:49:10.765Z,2.20
2023-04-25T22:54:14.277Z,2.23
2023-04-25T22:59:17.966Z,2.70
2023-04-25T23:04:21.020Z,1.60
2023-04-25T23:09:23.998Z,1.90
2023-04-25T23:14:26.737Z,1.90
2023-04-25T23:19:29.770Z,2.20
2023-04-25T23:24:36.260Z,2.10
2023-04-25T23:29:40.567Z,2.33
2023-04-25T23:34:43.326Z,2.50
2023-04-25T23:39:52.426Z,2.20
2023-04-25T23:44:55.285Z,3.60
